Terminal Aerodrome Forecast
Issued by NWS

Home | Current Version | Previous Version | Graphics & Text | Print | Product List | Glossary On
Versions: 1 2 3 4 5 6 7 8 9 10 11 12 13 14 15 16
718
FTUS42 KMHX 060537
TAFOAJ
TAF
KOAJ 060537Z 0606/0706 08007KT 5SM -RA BR SCT025 OVC050
     FM060900 06010G17KT 3SM RA BR OVC006
     FM061800 11011G18KT 5SM -RA BR OVC007
     FM062100 25010G15KT P6SM VCSH OVC007
     FM062300 26008KT P6SM BKN007
      AMD LTD TO CLD VIS AND WIND=

USA.gov is the U.S. government's official web portal to all federal, state and local government web resources and services.